createdAt,value
2023-03-29T00:01:34.780Z,11.37
2023-03-29T00:04:04.004Z,11.36
2023-03-29T00:06:33.431Z,11.39
2023-03-29T00:09:05.864Z,11.27
2023-03-29T00:11:33.200Z,11.31
2023-03-29T00:14:00.307Z,11.35
2023-03-29T00:16:27.175Z,11.33
2023-03-29T00:18:54.128Z,11.45
2023-03-29T00:21:21.144Z,11.35
2023-03-29T00:23:47.995Z,11.47
2023-03-29T00:26:16.549Z,11.47
2023-03-29T00:28:43.479Z,11.45
2023-03-29T00:31:12.705Z,11.39
2023-03-29T00:33:40.189Z,11.53
2023-03-29T00:36:08.682Z,11.55
2023-03-29T00:38:36.117Z,11.64
2023-03-29T00:41:04.279Z,11.66
2023-03-29T00:43:51.710Z,11.60
2023-03-29T00:46:18.739Z,11.73
2023-03-29T00:48:46.663Z,11.70
2023-03-29T00:51:16.583Z,11.58
2023-03-29T00:53:48.656Z,11.67
2023-03-29T00:56:20.316Z,11.67
2023-03-29T00:58:54.859Z,11.67
2023-03-29T01:12:25.851Z,11.92
2023-03-29T01:14:59.070Z,12.01
2023-03-29T01:17:26.157Z,11.96
2023-03-29T01:19:59.786Z,11.92
2023-03-29T01:22:38.914Z,11.95
2023-03-29T01:28:37.481Z,11.88
2023-03-29T01:31:50.235Z,11.95
2023-03-29T01:34:40.404Z,12.01
2023-03-29T01:37:26.352Z,11.95
2023-03-29T01:40:05.356Z,11.92
2023-03-29T01:42:42.797Z,12.00
2023-03-29T01:45:29.057Z,11.98
2023-03-29T01:48:04.584Z,12.11
2023-03-29T01:50:47.806Z,12.21
2023-03-29T01:53:59.276Z,12.16
2023-03-29T01:56:31.203Z,12.07
2023-03-29T01:59:02.294Z,12.19
2023-03-29T02:01:34.656Z,12.31
2023-03-29T02:04:15.140Z,12.20
2023-03-29T02:06:43.407Z,12.08
2023-03-29T02:09:10.594Z,12.10
2023-03-29T02:11:42.012Z,12.27
2023-03-29T02:14:10.102Z,12.50
2023-03-29T02:16:41.326Z,12.49
2023-03-29T02:19:10.759Z,12.35
2023-03-29T02:21:48.315Z,12.44
2023-03-29T02:24:25.207Z,12.50
2023-03-29T02:26:52.708Z,12.36
2023-03-29T02:29:19.836Z,12.38
2023-03-29T02:32:16.960Z,12.35
2023-03-29T02:35:06.985Z,12.62
2023-03-29T02:37:36.610Z,12.65
2023-03-29T02:40:33.216Z,12.64
2023-03-29T02:43:02.979Z,12.61
2023-03-29T02:46:39.733Z,12.59
2023-03-29T02:49:11.738Z,12.65
2023-03-29T02:51:48.923Z,12.56
2023-03-29T02:54:33.824Z,12.59
2023-03-29T02:57:26.837Z,12.57
2023-03-29T03:00:02.202Z,12.72
2023-03-29T03:02:35.969Z,12.72
2023-03-29T03:05:21.756Z,12.71
2023-03-29T03:08:00.754Z,12.62
2023-03-29T03:10:32.508Z,12.59
2023-03-29T03:13:10.333Z,12.43
2023-03-29T03:15:48.652Z,12.38
2023-03-29T03:18:16.930Z,12.45
2023-03-29T03:20:55.349Z,12.54
2023-03-29T03:23:25.106Z,12.52
2023-03-29T03:25:52.814Z,12.38
2023-03-29T03:28:20.156Z,12.33
2023-03-29T03:30:47.133Z,12.44
2023-03-29T03:33:14.089Z,12.39
2023-03-29T03:35:41.581Z,12.42
2023-03-29T03:38:10.922Z,12.52
2023-03-29T03:40:38.464Z,12.47
2023-03-29T03:43:13.993Z,12.49
2023-03-29T03:45:43.050Z,12.49
2023-03-29T03:48:10.015Z,12.44
2023-03-29T03:50:38.328Z,12.62
2023-03-29T03:53:05.331Z,12.59
2023-03-29T03:55:34.572Z,12.58
2023-03-29T03:58:01.941Z,12.54
2023-03-29T04:00:29.756Z,12.73
2023-03-29T04:02:56.761Z,12.82
2023-03-29T04:05:23.866Z,12.70
2023-03-29T04:07:51.039Z,12.73
2023-03-29T04:10:18.276Z,12.60
2023-03-29T04:12:46.638Z,12.65
2023-03-29T04:15:13.701Z,12.62
2023-03-29T04:17:41.030Z,12.65
2023-03-29T04:20:12.778Z,12.58
2023-03-29T04:22:40.379Z,12.67
2023-03-29T04:25:08.681Z,12.67
2023-03-29T04:27:36.352Z,12.66
2023-03-29T04:30:05.794Z,12.60
2023-03-29T04:32:32.879Z,12.73
2023-03-29T04:34:59.916Z,12.80
2023-03-29T04:37:27.946Z,12.77
2023-03-29T04:39:54.859Z,12.84
2023-03-29T04:42:21.754Z,12.81
2023-03-29T04:44:49.032Z,12.75
2023-03-29T04:47:30.111Z,12.83
2023-03-29T04:49:57.271Z,12.73
2023-03-29T04:52:24.564Z,12.87
2023-03-29T04:54:51.634Z,12.77
2023-03-29T04:57:18.685Z,12.84
2023-03-29T04:59:45.662Z,12.88
2023-03-29T05:02:12.654Z,12.76
2023-03-29T05:05:09.243Z,12.87
2023-03-29T05:07:36.353Z,12.70
2023-03-29T05:10:03.468Z,12.86
2023-03-29T05:12:30.828Z,12.94
2023-03-29T05:14:58.644Z,12.93
2023-03-29T05:17:27.577Z,12.88
2023-03-29T05:19:55.043Z,12.91
2023-03-29T05:22:38.133Z,12.98
2023-03-29T05:25:06.061Z,12.93
2023-03-29T05:27:33.549Z,12.96
2023-03-29T05:30:01.282Z,12.88
2023-03-29T05:32:28.598Z,12.92
2023-03-29T05:34:55.586Z,12.95
2023-03-29T05:37:23.900Z,12.89
2023-03-29T05:39:50.741Z,12.92
2023-03-29T05:42:22.368Z,12.93
2023-03-29T05:44:49.388Z,12.89
2023-03-29T06:18:35.495Z,13.09
2023-03-29T06:21:03.127Z,12.93
2023-03-29T06:23:30.889Z,13.11
2023-03-29T06:25:58.184Z,13.01
2023-03-29T06:28:25.237Z,13.12
2023-03-29T06:30:54.165Z,13.10
2023-03-29T06:33:21.500Z,13.04
2023-03-29T06:35:50.348Z,13.10
2023-03-29T06:38:17.874Z,12.99
2023-03-29T06:40:45.473Z,12.88
2023-03-29T06:43:13.001Z,13.07
2023-03-29T06:45:40.672Z,13.15
2023-03-29T06:48:08.484Z,13.09
2023-03-29T06:50:36.160Z,13.08
2023-03-29T06:56:11.851Z,13.26
2023-03-29T06:58:39.318Z,13.40
2023-03-29T07:01:07.553Z,13.45
2023-03-29T07:03:36.190Z,13.52
2023-03-29T07:06:09.912Z,13.35
2023-03-29T07:08:43.944Z,13.38
2023-03-29T07:11:13.235Z,13.59
2023-03-29T07:13:42.721Z,13.57
2023-03-29T07:16:13.971Z,13.60
2023-03-29T07:18:43.013Z,13.61
2023-03-29T07:21:12.489Z,13.63
2023-03-29T07:23:41.170Z,13.60
2023-03-29T07:26:08.730Z,13.85
2023-03-29T07:28:37.658Z,13.81
2023-03-29T07:31:06.977Z,14.08
2023-03-29T07:33:34.753Z,14.20
2023-03-29T07:36:02.494Z,14.31
2023-03-29T07:38:29.984Z,14.36
2023-03-29T07:40:58.714Z,14.70
2023-03-29T07:43:25.920Z,14.92
2023-03-29T07:45:53.219Z,14.88
2023-03-29T07:48:20.395Z,14.73
2023-03-29T07:50:56.906Z,14.65
2023-03-29T07:53:24.427Z,14.54
2023-03-29T07:55:52.706Z,14.67
2023-03-29T07:58:21.958Z,14.63
2023-03-29T08:00:49.399Z,14.61
2023-03-29T08:03:17.272Z,14.42
2023-03-29T08:05:45.219Z,14.91
2023-03-29T08:08:12.484Z,14.96
2023-03-29T08:10:39.760Z,15.26
2023-03-29T08:13:09.275Z,15.41
2023-03-29T08:15:40.086Z,14.95
2023-03-29T08:18:08.032Z,15.22
2023-03-29T08:20:35.374Z,15.52
2023-03-29T08:23:02.600Z,15.64
2023-03-29T08:25:30.476Z,15.51
2023-03-29T08:27:57.963Z,15.73
2023-03-29T08:30:25.948Z,15.76
2023-03-29T08:32:55.508Z,15.69
2023-03-29T08:35:23.162Z,15.85
2023-03-29T08:37:50.383Z,15.80
2023-03-29T08:40:24.229Z,15.80
2023-03-29T08:43:07.404Z,15.89
2023-03-29T08:45:39.441Z,15.97
2023-03-29T08:48:22.214Z,16.23
2023-03-29T08:50:54.714Z,16.24
2023-03-29T08:53:27.647Z,16.29
2023-03-29T08:55:57.525Z,16.55
2023-03-29T08:58:29.290Z,16.63
2023-03-29T09:00:58.578Z,17.56
2023-03-29T09:03:32.476Z,17.75
2023-03-29T09:06:03.648Z,17.53
2023-03-29T09:08:31.197Z,17.89
2023-03-29T09:11:16.778Z,17.17
2023-03-29T09:13:55.096Z,17.31
2023-03-29T09:16:30.358Z,17.29
2023-03-29T09:19:16.534Z,17.49
2023-03-29T09:21:49.775Z,17.26
2023-03-29T09:24:32.586Z,17.77
2023-03-29T09:27:04.135Z,17.91
2023-03-29T09:29:55.226Z,18.31
2023-03-29T09:32:32.029Z,18.21
2023-03-29T09:35:14.306Z,18.54
2023-03-29T09:37:41.913Z,18.53
2023-03-29T09:40:15.878Z,18.49
2023-03-29T09:42:44.987Z,18.20
2023-03-29T09:45:12.184Z,18.26
2023-03-29T09:47:43.819Z,18.22
2023-03-29T09:50:29.627Z,17.90
2023-03-29T09:52:58.567Z,18.07
2023-03-29T09:55:28.856Z,18.00
2023-03-29T09:57:59.183Z,17.81
2023-03-29T10:00:26.694Z,18.31
2023-03-29T10:02:57.168Z,18.36
2023-03-29T10:05:29.708Z,18.39
2023-03-29T10:08:01.333Z,18.60
2023-03-29T10:10:30.156Z,18.53
2023-03-29T10:13:01.147Z,18.22
2023-03-29T10:15:30.322Z,18.25
2023-03-29T10:17:59.935Z,18.50
2023-03-29T10:20:28.519Z,18.50
2023-03-29T10:22:57.956Z,18.68
2023-03-29T10:25:28.959Z,19.09
2023-03-29T10:28:03.890Z,18.83
2023-03-29T10:30:35.101Z,19.55
2023-03-29T10:33:02.536Z,19.27
2023-03-29T10:35:35.095Z,19.34
2023-03-29T10:38:07.920Z,18.89
2023-03-29T10:40:41.515Z,19.54
2023-03-29T10:43:14.660Z,20.11
2023-03-29T10:45:42.524Z,19.82
2023-03-29T10:48:13.786Z,20.11
2023-03-29T10:50:43.035Z,19.78
2023-03-29T10:53:18.172Z,20.07
2023-03-29T10:55:55.507Z,20.04
2023-03-29T10:58:42.591Z,19.52
2023-03-29T11:01:22.402Z,19.49
2023-03-29T11:04:16.115Z,19.22
2023-03-29T11:06:54.788Z,19.93
2023-03-29T11:09:36.431Z,19.66
2023-03-29T11:12:16.103Z,19.83
2023-03-29T11:15:00.576Z,19.93
2023-03-29T11:17:33.931Z,19.54
2023-03-29T11:20:12.652Z,19.80
2023-03-29T11:23:33.673Z,20.24
2023-03-29T11:26:11.876Z,20.20
2023-03-29T11:28:48.823Z,20.79
2023-03-29T11:31:24.828Z,20.03
2023-03-29T11:34:01.899Z,19.78
2023-03-29T11:36:39.101Z,20.24
2023-03-29T11:39:15.649Z,20.52
2023-03-29T11:41:46.726Z,20.74
2023-03-29T11:44:18.206Z,20.53
2023-03-29T11:46:52.925Z,20.81
2023-03-29T11:49:25.307Z,20.53
2023-03-29T11:51:57.069Z,20.59
2023-03-29T11:54:32.148Z,20.43
2023-03-29T11:57:05.851Z,20.69
2023-03-29T11:59:37.941Z,20.25
2023-03-29T12:02:14.850Z,20.19
2023-03-29T12:04:47.544Z,20.35
2023-03-29T12:07:17.964Z,20.63
2023-03-29T12:09:51.096Z,20.71
2023-03-29T12:12:23.429Z,20.51
2023-03-29T12:15:00.207Z,20.64
2023-03-29T12:17:36.854Z,20.77
2023-03-29T12:20:12.004Z,21.02
2023-03-29T12:22:40.193Z,20.60
2023-03-29T12:25:18.473Z,20.94
2023-03-29T12:27:58.413Z,20.67
2023-03-29T12:30:47.113Z,20.68
2023-03-29T12:33:34.319Z,20.62
2023-03-29T12:36:19.476Z,20.71
2023-03-29T12:38:48.261Z,21.10
2023-03-29T12:41:20.098Z,20.72
2023-03-29T12:43:48.323Z,21.04
2023-03-29T12:46:18.572Z,21.05
2023-03-29T12:48:47.858Z,21.31
2023-03-29T12:51:17.355Z,21.06
2023-03-29T12:53:47.446Z,21.42
2023-03-29T12:56:17.865Z,21.16
2023-03-29T12:58:55.617Z,21.00
2023-03-29T13:01:27.596Z,20.86
2023-03-29T13:04:17.622Z,21.17
2023-03-29T13:07:06.123Z,20.73
2023-03-29T13:09:46.965Z,21.01
2023-03-29T13:12:24.348Z,21.13
2023-03-29T13:14:54.467Z,21.05
2023-03-29T13:17:42.886Z,21.13
2023-03-29T13:20:28.755Z,21.19
2023-03-29T13:23:09.674Z,20.97
2023-03-29T13:25:52.550Z,21.05
2023-03-29T13:28:30.449Z,20.95
2023-03-29T13:31:01.882Z,20.99
2023-03-29T13:33:57.444Z,20.90
2023-03-29T13:36:40.510Z,20.62
2023-03-29T13:39:15.504Z,20.46
2023-03-29T13:41:51.521Z,20.38
2023-03-29T13:44:29.963Z,20.36
2023-03-29T13:47:12.682Z,20.37
2023-03-29T13:49:43.312Z,20.62
2023-03-29T13:52:18.973Z,20.35
2023-03-29T13:54:54.063Z,20.40
2023-03-29T13:57:25.233Z,20.29
2023-03-29T13:59:59.567Z,20.64
2023-03-29T14:02:37.117Z,20.77
2023-03-29T14:05:07.745Z,20.55
2023-03-29T14:07:39.456Z,20.59
2023-03-29T14:10:07.993Z,20.49
2023-03-29T14:12:41.195Z,20.79
2023-03-29T14:15:23.915Z,21.05
2023-03-29T14:18:00.329Z,20.67
2023-03-29T14:20:30.385Z,20.43
2023-03-29T14:22:57.642Z,20.51
2023-03-29T14:25:25.626Z,20.79
2023-03-29T14:27:52.817Z,21.14
2023-03-29T14:30:25.916Z,20.53
2023-03-29T14:32:53.189Z,20.86
2023-03-29T14:35:27.336Z,21.09
2023-03-29T14:37:54.604Z,21.13
2023-03-29T14:40:22.060Z,21.20
2023-03-29T15:11:19.702Z,21.19
2023-03-29T15:13:47.902Z,21.35
2023-03-29T15:16:17.047Z,21.05
2023-03-29T15:18:45.520Z,21.10
2023-03-29T15:21:15.082Z,21.29
2023-03-29T15:23:48.197Z,21.17
2023-03-29T15:26:22.380Z,21.19
2023-03-29T15:28:55.611Z,20.84
2023-03-29T15:31:26.798Z,21.05
2023-03-29T15:34:04.358Z,21.24
2023-03-29T15:36:33.064Z,21.07
2023-03-29T15:39:01.579Z,21.38
2023-03-29T15:41:30.212Z,21.26
2023-03-29T15:43:57.708Z,21.10
2023-03-29T15:46:24.749Z,21.03
2023-03-29T15:48:51.727Z,21.15
2023-03-29T15:51:18.862Z,20.95
2023-03-29T15:53:46.247Z,20.99
2023-03-29T15:56:18.237Z,20.71
2023-03-29T15:58:47.585Z,20.58
2023-03-29T16:01:34.457Z,20.44
2023-03-29T16:04:02.193Z,20.54
2023-03-29T16:06:29.204Z,20.51
2023-03-29T16:08:57.481Z,20.53
2023-03-29T16:11:24.896Z,20.62
2023-03-29T16:13:53.531Z,20.59
2023-03-29T16:16:21.969Z,20.72
2023-03-29T16:18:49.252Z,20.77
2023-03-29T16:21:19.575Z,20.58
2023-03-29T16:23:48.288Z,20.67
2023-03-29T16:26:17.121Z,20.62
2023-03-29T16:28:44.347Z,20.54
2023-03-29T16:31:14.035Z,20.14
2023-03-29T16:33:41.712Z,20.28
2023-03-29T16:36:09.923Z,20.30
2023-03-29T16:38:37.258Z,20.48
2023-03-29T16:41:07.854Z,20.65
2023-03-29T16:43:38.608Z,20.49
2023-03-29T16:46:07.536Z,20.43
2023-03-29T16:48:37.172Z,20.22
2023-03-29T16:51:05.640Z,20.33
2023-03-29T16:53:32.737Z,20.37
2023-03-29T16:56:00.105Z,20.18
2023-03-29T16:58:30.191Z,20.07
2023-03-29T17:00:57.780Z,20.16
2023-03-29T17:03:24.961Z,19.93
2023-03-29T17:05:54.596Z,20.10
2023-03-29T17:08:22.183Z,20.16
2023-03-29T17:10:53.390Z,19.91
2023-03-29T17:13:24.039Z,19.71
2023-03-29T17:15:52.988Z,19.80
2023-03-29T17:18:20.414Z,19.78
2023-03-29T17:20:48.135Z,20.05
2023-03-29T17:23:16.669Z,20.15
2023-03-29T17:25:44.970Z,20.12
2023-03-29T17:28:12.093Z,20.18
2023-03-29T17:30:39.936Z,20.04
2023-03-29T17:33:08.191Z,19.94
2023-03-29T17:35:35.954Z,19.82
2023-03-29T17:38:06.358Z,19.96
2023-03-29T17:41:49.986Z,19.78
2023-03-29T17:45:03.215Z,19.70
2023-03-29T18:34:16.140Z,19.19
2023-03-29T18:37:09.745Z,19.04
2023-03-29T18:39:36.960Z,18.99
2023-03-29T18:42:05.643Z,18.90
2023-03-29T18:44:33.528Z,19.10
2023-03-29T18:47:01.189Z,18.97
2023-03-29T18:49:30.078Z,19.09
2023-03-29T18:51:57.772Z,18.83
2023-03-29T18:54:24.970Z,18.84
2023-03-29T18:56:54.358Z,18.75
2023-03-29T18:59:22.414Z,18.88
2023-03-29T19:01:50.221Z,18.78
2023-03-29T19:04:19.911Z,18.77
2023-03-29T19:06:49.432Z,18.72
2023-03-29T19:09:17.348Z,18.78
2023-03-29T19:11:48.055Z,18.68
2023-03-29T19:14:23.502Z,18.58
2023-03-29T19:16:52.337Z,18.52
2023-03-29T19:19:19.893Z,18.39
2023-03-29T19:21:49.714Z,18.48
2023-03-29T19:24:16.988Z,18.33
2023-03-29T19:26:48.064Z,18.39
2023-03-29T19:29:15.258Z,18.34
2023-03-29T19:31:43.818Z,18.39
2023-03-29T19:34:11.823Z,18.32
2023-03-29T19:36:39.720Z,18.31
2023-03-29T19:39:08.357Z,18.27
2023-03-29T19:41:35.510Z,18.25
2023-03-29T19:44:05.379Z,18.04
2023-03-29T19:46:36.242Z,18.00
2023-03-29T19:49:05.563Z,17.92
2023-03-29T19:51:32.845Z,17.96
2023-03-29T19:53:59.947Z,17.96
2023-03-29T19:56:28.708Z,18.17
2023-03-29T19:58:55.885Z,18.04
2023-03-29T20:01:27.243Z,18.14
2023-03-29T20:03:54.436Z,18.10
2023-03-29T20:06:21.674Z,18.13
2023-03-29T20:08:48.844Z,18.18
2023-03-29T20:11:16.771Z,18.22
2023-03-29T20:13:46.016Z,18.37
2023-03-29T20:16:16.348Z,18.19
2023-03-29T20:18:46.724Z,18.32
2023-03-29T20:21:16.849Z,18.12
2023-03-29T20:23:44.543Z,18.20
2023-03-29T20:26:11.763Z,18.21
2023-03-29T20:28:39.077Z,18.26
2023-03-29T20:31:10.879Z,18.12
2023-03-29T20:33:38.311Z,18.17
2023-03-29T20:36:06.648Z,18.18
2023-03-29T20:38:33.981Z,18.24
2023-03-29T20:41:01.435Z,18.08
2023-03-29T20:43:29.886Z,18.04
2023-03-29T20:45:57.137Z,18.02
2023-03-29T20:48:31.434Z,18.06
2023-03-29T20:50:58.516Z,18.12
2023-03-29T20:53:30.142Z,17.89
2023-03-29T20:55:57.249Z,18.00
2023-03-29T20:58:27.340Z,18.11
2023-03-29T21:00:54.298Z,17.85
2023-03-29T21:03:21.503Z,17.95
2023-03-29T21:05:54.097Z,17.91
2023-03-29T21:08:21.208Z,17.85
2023-03-29T21:10:48.300Z,17.80
2023-03-29T21:13:15.376Z,17.86
2023-03-29T21:15:43.830Z,17.73
2023-03-29T21:18:11.101Z,17.74
2023-03-29T21:20:38.446Z,17.70
2023-03-29T21:23:06.973Z,17.58
2023-03-29T21:25:34.325Z,17.56
2023-03-29T21:28:01.434Z,17.55
2023-03-29T21:30:30.102Z,17.49
2023-03-29T21:32:59.225Z,17.59
2023-03-29T21:35:26.521Z,17.57
2023-03-29T21:37:53.495Z,17.55
2023-03-29T21:40:22.150Z,17.59
2023-03-29T21:42:49.617Z,17.60
2023-03-29T21:45:17.127Z,17.56
2023-03-29T21:47:44.526Z,17.48
2023-03-29T21:50:12.017Z,17.52
2023-03-29T21:52:39.389Z,17.57
2023-03-29T21:55:07.407Z,17.45
2023-03-29T21:57:38.401Z,17.47
2023-03-29T22:00:11.382Z,17.57
2023-03-29T22:02:39.088Z,17.61
2023-03-29T22:05:07.964Z,17.75
2023-03-29T22:07:38.801Z,17.76
2023-03-29T22:10:07.183Z,17.93
2023-03-29T22:12:37.731Z,17.99
2023-03-29T22:15:06.410Z,18.07
2023-03-29T22:17:35.339Z,18.24
2023-03-29T22:20:02.960Z,18.21
2023-03-29T22:22:31.943Z,18.17
2023-03-29T22:25:00.124Z,18.36
2023-03-29T22:27:27.585Z,18.38
2023-03-29T22:29:56.211Z,18.24
2023-03-29T22:32:24.552Z,18.46
2023-03-29T22:34:52.398Z,18.53
2023-03-29T22:37:19.704Z,18.67
2023-03-29T22:39:47.040Z,18.58
2023-03-29T22:42:14.474Z,18.68
2023-03-29T22:44:42.760Z,18.71
2023-03-29T22:47:12.711Z,18.77
2023-03-29T22:49:40.180Z,18.89
2023-03-29T22:52:08.726Z,18.84
2023-03-29T22:54:36.062Z,18.54
2023-03-29T22:57:03.768Z,18.57
2023-03-29T22:59:31.619Z,18.49
2023-03-29T23:01:58.959Z,18.41
2023-03-29T23:04:27.909Z,18.15
2023-03-29T23:06:55.084Z,18.14
2023-03-29T23:09:29.418Z,18.29
2023-03-29T23:11:56.567Z,18.42
2023-03-29T23:14:23.821Z,18.26
2023-03-29T23:16:50.878Z,18.24
2023-03-29T23:19:17.858Z,18.06
2023-03-29T23:21:46.882Z,18.28
2023-03-29T23:24:18.865Z,18.04
2023-03-29T23:26:49.114Z,18.23
2023-03-29T23:29:16.179Z,18.13
2023-03-29T23:31:44.538Z,18.38
2023-03-29T23:34:13.574Z,18.28
2023-03-29T23:36:40.832Z,18.08
2023-03-29T23:39:10.024Z,18.29
2023-03-29T23:41:40.558Z,18.40
2023-03-29T23:44:08.008Z,18.43
2023-03-29T23:46:35.346Z,18.22
2023-03-29T23:49:02.592Z,18.10
2023-03-29T23:51:29.713Z,18.04
2023-03-29T23:53:57.290Z,18.04
2023-03-29T23:56:25.887Z,18.22
2023-03-29T23:58:53.045Z,18.17
